sensor_id;sensor_type;location;lat;lon;timestamp;pressure;altitude;pressure_sealevel;temperature
68012;BMP180;54794;48.348;7.878;2023-12-14T00:01:41;98080.00;;;9.30
68012;BMP180;54794;48.348;7.878;2023-12-14T00:09:24;98089.00;;;9.30
68012;BMP180;54794;48.348;7.878;2023-12-14T00:16:34;98095.00;;;9.20
68012;BMP180;54794;48.348;7.878;2023-12-14T00:19:49;98099.00;;;9.20
68012;BMP180;54794;48.348;7.878;2023-12-14T00:26:30;98100.00;;;9.40
68012;BMP180;54794;48.348;7.878;2023-12-14T00:29:33;98108.00;;;9.50
68012;BMP180;54794;48.348;7.878;2023-12-14T00:33:05;98118.00;;;9.40
68012;BMP180;54794;48.348;7.878;2023-12-14T00:36:08;98105.00;;;9.40
68012;BMP180;54794;48.348;7.878;2023-12-14T00:39:27;98121.00;;;9.40
68012;BMP180;54794;48.348;7.878;2023-12-14T00:42:23;98133.00;;;9.30
68012;BMP180;54794;48.348;7.878;2023-12-14T00:46:03;98131.00;;;9.20
68012;BMP180;54794;48.348;7.878;2023-12-14T00:49:07;98125.00;;;9.40
68012;BMP180;54794;48.348;7.878;2023-12-14T00:59:29;98139.00;;;9.20
68012;BMP180;54794;48.348;7.878;2023-12-14T01:05:31;98152.00;;;9.30
68012;BMP180;54794;48.348;7.878;2023-12-14T01:08:26;98158.00;;;9.30
68012;BMP180;54794;48.348;7.878;2023-12-14T01:11:59;98162.00;;;9.20
68012;BMP180;54794;48.348;7.878;2023-12-14T01:18:32;98177.00;;;9.00
68012;BMP180;54794;48.348;7.878;2023-12-14T01:21:32;98178.00;;;9.30
68012;BMP180;54794;48.348;7.878;2023-12-14T01:27:43;98183.00;;;9.30
68012;BMP180;54794;48.348;7.878;2023-12-14T01:31:09;98193.00;;;9.20
68012;BMP180;54794;48.348;7.878;2023-12-14T01:34:10;98200.00;;;9.20
68012;BMP180;54794;48.348;7.878;2023-12-14T01:37:32;98195.00;;;9.30
68012;BMP180;54794;48.348;7.878;2023-12-14T01:40:42;98207.00;;;9.40
68012;BMP180;54794;48.348;7.878;2023-12-14T01:43:58;98222.00;;;9.30
68012;BMP180;54794;48.348;7.878;2023-12-14T01:47:00;98223.00;;;9.20
68012;BMP180;54794;48.348;7.878;2023-12-14T01:50:49;98211.00;;;9.40
68012;BMP180;54794;48.348;7.878;2023-12-14T02:02:43;98249.00;;;9.20
68012;BMP180;54794;48.348;7.878;2023-12-14T02:25:28;98264.00;;;9.30
68012;BMP180;54794;48.348;7.878;2023-12-14T02:29:15;98265.00;;;9.40
68012;BMP180;54794;48.348;7.878;2023-12-14T02:40:52;98296.00;;;9.20
68012;BMP180;54794;48.348;7.878;2023-12-14T02:44:55;98295.00;;;9.00
68012;BMP180;54794;48.348;7.878;2023-12-14T02:52:56;98296.00;;;9.00
68012;BMP180;54794;48.348;7.878;2023-12-14T02:56:09;98306.00;;;9.10
68012;BMP180;54794;48.348;7.878;2023-12-14T03:00:03;98303.00;;;9.20
68012;BMP180;54794;48.348;7.878;2023-12-14T03:12:06;98306.00;;;9.00
68012;BMP180;54794;48.348;7.878;2023-12-14T03:19:11;98321.00;;;9.10
68012;BMP180;54794;48.348;7.878;2023-12-14T03:22:54;98326.00;;;9.10
68012;BMP180;54794;48.348;7.878;2023-12-14T03:29:16;98332.00;;;9.10
68012;BMP180;54794;48.348;7.878;2023-12-14T03:32:54;98338.00;;;9.00
68012;BMP180;54794;48.348;7.878;2023-12-14T09:12:15;98972.00;;;8.70
68012;BMP180;54794;48.348;7.878;2023-12-14T09:15:21;98981.00;;;8.80
68012;BMP180;54794;48.348;7.878;2023-12-14T09:22:45;98988.00;;;9.00
68012;BMP180;54794;48.348;7.878;2023-12-14T09:25:32;98987.00;;;9.00
68012;BMP180;54794;48.348;7.878;2023-12-14T09:37:03;99006.00;;;9.40
68012;BMP180;54794;48.348;7.878;2023-12-14T09:40:28;99022.00;;;9.60
68012;BMP180;54794;48.348;7.878;2023-12-14T09:44:13;99026.00;;;9.50
68012;BMP180;54794;48.348;7.878;2023-12-14T09:47:45;99031.00;;;9.50
68012;BMP180;54794;48.348;7.878;2023-12-14T09:51:44;99035.00;;;9.50
68012;BMP180;54794;48.348;7.878;2023-12-14T09:54:34;99047.00;;;9.50
68012;BMP180;54794;48.348;7.878;2023-12-14T09:58:24;99048.00;;;9.30
68012;BMP180;54794;48.348;7.878;2023-12-14T10:01:37;99060.00;;;9.40
68012;BMP180;54794;48.348;7.878;2023-12-14T10:04:28;99044.00;;;9.50
68012;BMP180;54794;48.348;7.878;2023-12-14T10:07:35;99059.00;;;9.50
68012;BMP180;54794;48.348;7.878;2023-12-14T10:11:02;99071.00;;;9.40
68012;BMP180;54794;48.348;7.878;2023-12-14T10:18:27;99075.00;;;9.60
68012;BMP180;54794;48.348;7.878;2023-12-14T10:21:34;99082.00;;;9.60
68012;BMP180;54794;48.348;7.878;2023-12-14T10:24:12;99077.00;;;9.50
68012;BMP180;54794;48.348;7.878;2023-12-14T10:27:34;99102.00;;;9.70
68012;BMP180;54794;48.348;7.878;2023-12-14T10:34:39;99095.00;;;9.50
68012;BMP180;54794;48.348;7.878;2023-12-14T10:37:52;99094.00;;;9.50
68012;BMP180;54794;48.348;7.878;2023-12-14T10:49:04;99115.00;;;9.50
68012;BMP180;54794;48.348;7.878;2023-12-14T10:52:47;99112.00;;;9.80
68012;BMP180;54794;48.348;7.878;2023-12-14T10:56:01;99115.00;;;9.70
68012;BMP180;54794;48.348;7.878;2023-12-14T10:59:47;99126.00;;;9.50
68012;BMP180;54794;48.348;7.878;2023-12-14T11:06:57;99128.00;;;10.00
68012;BMP180;54794;48.348;7.878;2023-12-14T11:10:06;99138.00;;;9.70
68012;BMP180;54794;48.348;7.878;2023-12-14T11:13:17;99150.00;;;9.70
68012;BMP180;54794;48.348;7.878;2023-12-14T11:16:21;99159.00;;;9.80
68012;BMP180;54794;48.348;7.878;2023-12-14T11:19:49;99154.00;;;9.90
68012;BMP180;54794;48.348;7.878;2023-12-14T11:22:45;99151.00;;;10.10
68012;BMP180;54794;48.348;7.878;2023-12-14T11:32:17;99159.00;;;10.10
68012;BMP180;54794;48.348;7.878;2023-12-14T11:35:18;99161.00;;;10.20
68012;BMP180;54794;48.348;7.878;2023-12-14T11:37:48;99160.00;;;10.40
68012;BMP180;54794;48.348;7.878;2023-12-14T11:40:52;99161.00;;;10.20
68012;BMP180;54794;48.348;7.878;2023-12-14T11:43:59;99181.00;;;10.40
68012;BMP180;54794;48.348;7.878;2023-12-14T11:46:49;99179.00;;;10.40
68012;BMP180;54794;48.348;7.878;2023-12-14T11:49:28;99180.00;;;10.10
68012;BMP180;54794;48.348;7.878;2023-12-14T11:51:55;99173.00;;;10.40
68012;BMP180;54794;48.348;7.878;2023-12-14T11:54:27;99181.00;;;10.30
68012;BMP180;54794;48.348;7.878;2023-12-14T11:57:02;99179.00;;;10.10
68012;BMP180;54794;48.348;7.878;2023-12-14T11:59:48;99181.00;;;10.30
68012;BMP180;54794;48.348;7.878;2023-12-14T12:06:31;99178.00;;;10.50
68012;BMP180;54794;48.348;7.878;2023-12-14T12:09:08;99184.00;;;10.50
68012;BMP180;54794;48.348;7.878;2023-12-14T12:11:47;99176.00;;;10.50
68012;BMP180;54794;48.348;7.878;2023-12-14T12:14:47;99176.00;;;10.50
68012;BMP180;54794;48.348;7.878;2023-12-14T12:17:22;99180.00;;;10.50
68012;BMP180;54794;48.348;7.878;2023-12-14T12:19:58;99175.00;;;10.80
68012;BMP180;54794;48.348;7.878;2023-12-14T12:22:49;99185.00;;;10.80
68012;BMP180;54794;48.348;7.878;2023-12-14T12:25:29;99187.00;;;10.90
68012;BMP180;54794;48.348;7.878;2023-12-14T12:28:41;99196.00;;;10.70
68012;BMP180;54794;48.348;7.878;2023-12-14T12:31:16;99198.00;;;10.90
68012;BMP180;54794;48.348;7.878;2023-12-14T12:34:26;99203.00;;;10.80
68012;BMP180;54794;48.348;7.878;2023-12-14T12:37:26;99195.00;;;10.80
68012;BMP180;54794;48.348;7.878;2023-12-14T12:40:35;99195.00;;;10.80
68012;BMP180;54794;48.348;7.878;2023-12-14T12:43:19;99198.00;;;10.80
68012;BMP180;54794;48.348;7.878;2023-12-14T12:45:46;99199.00;;;10.50
68012;BMP180;54794;48.348;7.878;2023-12-14T12:48:29;99215.00;;;10.30
68012;BMP180;54794;48.348;7.878;2023-12-14T12:55:18;99223.00;;;10.30
68012;BMP180;54794;48.348;7.878;2023-12-14T12:58:41;99242.00;;;10.20
68012;BMP180;54794;48.348;7.878;2023-12-14T13:05:35;99221.00;;;10.50
68012;BMP180;54794;48.348;7.878;2023-12-14T13:08:42;99228.00;;;10.60
68012;BMP180;54794;48.348;7.878;2023-12-14T13:11:43;99221.00;;;10.70
68012;BMP180;54794;48.348;7.878;2023-12-14T13:15:11;99235.00;;;10.70
68012;BMP180;54794;48.348;7.878;2023-12-14T13:18:38;99233.00;;;10.50
68012;BMP180;54794;48.348;7.878;2023-12-14T13:21:45;99235.00;;;10.30
68012;BMP180;54794;48.348;7.878;2023-12-14T13:24:38;99237.00;;;10.00
68012;BMP180;54794;48.348;7.878;2023-12-14T13:27:18;99246.00;;;10.20
68012;BMP180;54794;48.348;7.878;2023-12-14T13:38:22;99253.00;;;10.20
68012;BMP180;54794;48.348;7.878;2023-12-14T13:41:37;99259.00;;;10.20
68012;BMP180;54794;48.348;7.878;2023-12-14T13:48:03;99269.00;;;10.20
68012;BMP180;54794;48.348;7.878;2023-12-14T13:52:01;99285.00;;;10.00
68012;BMP180;54794;48.348;7.878;2023-12-14T13:54:49;99283.00;;;10.10
68012;BMP180;54794;48.348;7.878;2023-12-14T14:01:38;99292.00;;;10.20
68012;BMP180;54794;48.348;7.878;2023-12-14T14:08:52;99305.00;;;10.10
68012;BMP180;54794;48.348;7.878;2023-12-14T14:11:38;99306.00;;;10.20
68012;BMP180;54794;48.348;7.878;2023-12-14T14:14:39;99309.00;;;10.10
68012;BMP180;54794;48.348;7.878;2023-12-14T14:20:11;99334.00;;;10.20
68012;BMP180;54794;48.348;7.878;2023-12-14T14:22:47;99329.00;;;10.20
68012;BMP180;54794;48.348;7.878;2023-12-14T14:25:16;99333.00;;;10.20
68012;BMP180;54794;48.348;7.878;2023-12-14T14:27:43;99343.00;;;10.40
68012;BMP180;54794;48.348;7.878;2023-12-14T14:30:14;99346.00;;;10.40
68012;BMP180;54794;48.348;7.878;2023-12-14T14:32:41;99352.00;;;10.30
68012;BMP180;54794;48.348;7.878;2023-12-14T14:35:08;99358.00;;;10.30
68012;BMP180;54794;48.348;7.878;2023-12-14T14:37:35;99361.00;;;10.20
68012;BMP180;54794;48.348;7.878;2023-12-14T14:40:02;99386.00;;;10.10
68012;BMP180;54794;48.348;7.878;2023-12-14T14:42:30;99386.00;;;9.90
68012;BMP180;54794;48.348;7.878;2023-12-14T14:45:06;99390.00;;;9.90
68012;BMP180;54794;48.348;7.878;2023-12-14T14:47:59;99402.00;;;10.10
68012;BMP180;54794;48.348;7.878;2023-12-14T14:51:26;99406.00;;;9.90
68012;BMP180;54794;48.348;7.878;2023-12-14T14:54:29;99420.00;;;9.90
68012;BMP180;54794;48.348;7.878;2023-12-14T15:01:05;99421.00;;;9.90
68012;BMP180;54794;48.348;7.878;2023-12-14T15:10:56;99446.00;;;10.10
68012;BMP180;54794;48.348;7.878;2023-12-14T15:13:35;99447.00;;;10.20
68012;BMP180;54794;48.348;7.878;2023-12-14T15:20:14;99457.00;;;10.00
68012;BMP180;54794;48.348;7.878;2023-12-14T15:42:15;99492.00;;;10.00
68012;BMP180;54794;48.348;7.878;2023-12-14T15:57:10;99515.00;;;9.90
68012;BMP180;54794;48.348;7.878;2023-12-14T16:01:03;99518.00;;;10.00
68012;BMP180;54794;48.348;7.878;2023-12-14T16:08:05;99531.00;;;9.80
68012;BMP180;54794;48.348;7.878;2023-12-14T16:15:27;99543.00;;;9.80
68012;BMP180;54794;48.348;7.878;2023-12-14T16:23:50;99549.00;;;9.90
68012;BMP180;54794;48.348;7.878;2023-12-14T16:41:21;99593.00;;;9.90
68012;BMP180;54794;48.348;7.878;2023-12-14T16:43:52;99582.00;;;9.90
68012;BMP180;54794;48.348;7.878;2023-12-14T16:46:24;99597.00;;;9.90
68012;BMP180;54794;48.348;7.878;2023-12-14T16:48:51;99593.00;;;9.80
68012;BMP180;54794;48.348;7.878;2023-12-14T16:51:58;99602.00;;;9.70
68012;BMP180;54794;48.348;7.878;2023-12-14T16:54:29;99613.00;;;9.70
68012;BMP180;54794;48.348;7.878;2023-12-14T16:56:56;99605.00;;;9.60
68012;BMP180;54794;48.348;7.878;2023-12-14T17:03:23;99626.00;;;9.70
68012;BMP180;54794;48.348;7.878;2023-12-14T17:14:40;99641.00;;;9.90
68012;BMP180;54794;48.348;7.878;2023-12-14T17:17:48;99642.00;;;9.70
68012;BMP180;54794;48.348;7.878;2023-12-14T17:20:49;99646.00;;;9.80
68012;BMP180;54794;48.348;7.878;2023-12-14T17:24:30;99664.00;;;9.70
68012;BMP180;54794;48.348;7.878;2023-12-14T17:42:05;99692.00;;;9.50
68012;BMP180;54794;48.348;7.878;2023-12-14T17:45:06;99701.00;;;9.70
68012;BMP180;54794;48.348;7.878;2023-12-14T17:48:01;99707.00;;;9.70
68012;BMP180;54794;48.348;7.878;2023-12-14T17:53:56;99734.00;;;9.30
68012;BMP180;54794;48.348;7.878;2023-12-14T18:00:04;99739.00;;;9.10
68012;BMP180;54794;48.348;7.878;2023-12-14T18:03:35;99746.00;;;9.00
68012;BMP180;54794;48.348;7.878;2023-12-14T18:18:09;99778.00;;;9.20
68012;BMP180;54794;48.348;7.878;2023-12-14T18:21:28;99769.00;;;9.10
68012;BMP180;54794;48.348;7.878;2023-12-14T18:24:12;99776.00;;;9.10
68012;BMP180;54794;48.348;7.878;2023-12-14T18:30:42;99787.00;;;9.10
68012;BMP180;54794;48.348;7.878;2023-12-14T18:33:45;99792.00;;;9.10
68012;BMP180;54794;48.348;7.878;2023-12-14T18:40:17;99809.00;;;9.20
68012;BMP180;54794;48.348;7.878;2023-12-14T18:43:07;99809.00;;;9.20
68012;BMP180;54794;48.348;7.878;2023-12-14T18:49:35;99824.00;;;9.20
68012;BMP180;54794;48.348;7.878;2023-12-14T18:55:18;99832.00;;;9.10
68012;BMP180;54794;48.348;7.878;2023-12-14T18:58:10;99838.00;;;9.00
68012;BMP180;54794;48.348;7.878;2023-12-14T19:00:56;99849.00;;;8.70
68012;BMP180;54794;48.348;7.878;2023-12-14T19:03:33;99844.00;;;8.70
68012;BMP180;54794;48.348;7.878;2023-12-14T19:09:07;99856.00;;;8.80
68012;BMP180;54794;48.348;7.878;2023-12-14T19:11:37;99865.00;;;8.90
68012;BMP180;54794;48.348;7.878;2023-12-14T19:14:29;99860.00;;;8.90
68012;BMP180;54794;48.348;7.878;2023-12-14T19:17:32;99874.00;;;8.40
68012;BMP180;54794;48.348;7.878;2023-12-14T19:20:35;99892.00;;;8.20
68012;BMP180;54794;48.348;7.878;2023-12-14T19:23:54;99891.00;;;8.50
68012;BMP180;54794;48.348;7.878;2023-12-14T19:26:42;99896.00;;;8.50
68012;BMP180;54794;48.348;7.878;2023-12-14T19:29:22;99902.00;;;8.50
68012;BMP180;54794;48.348;7.878;2023-12-14T19:31:56;99908.00;;;8.50
68012;BMP180;54794;48.348;7.878;2023-12-14T19:34:48;99906.00;;;8.50
68012;BMP180;54794;48.348;7.878;2023-12-14T19:37:31;99917.00;;;8.40
68012;BMP180;54794;48.348;7.878;2023-12-14T19:40:15;99918.00;;;8.40
68012;BMP180;54794;48.348;7.878;2023-12-14T19:43:14;99925.00;;;8.50
68012;BMP180;54794;48.348;7.878;2023-12-14T19:45:50;99934.00;;;8.30
68012;BMP180;54794;48.348;7.878;2023-12-14T19:48:23;99937.00;;;8.30
68012;BMP180;54794;48.348;7.878;2023-12-14T19:51:14;99938.00;;;8.20
68012;BMP180;54794;48.348;7.878;2023-12-14T19:53:59;99945.00;;;8.10
68012;BMP180;54794;48.348;7.878;2023-12-14T19:56:26;99961.00;;;7.70
68012;BMP180;54794;48.348;7.878;2023-12-14T19:59:03;99957.00;;;7.80
68012;BMP180;54794;48.348;7.878;2023-12-14T20:01:33;99961.00;;;7.70
68012;BMP180;54794;48.348;7.878;2023-12-14T20:04:00;99968.00;;;7.90
68012;BMP180;54794;48.348;7.878;2023-12-14T20:06:27;99977.00;;;8.00
68012;BMP180;54794;48.348;7.878;2023-12-14T20:09:05;99983.00;;;8.00
68012;BMP180;54794;48.348;7.878;2023-12-14T20:11:32;99986.00;;;8.00
68012;BMP180;54794;48.348;7.878;2023-12-14T20:13:59;99993.00;;;8.00
68012;BMP180;54794;48.348;7.878;2023-12-14T20:16:26;99984.00;;;8.20
68012;BMP180;54794;48.348;7.878;2023-12-14T20:18:53;99999.00;;;8.20
68012;BMP180;54794;48.348;7.878;2023-12-14T20:21:20;99994.00;;;8.30
68012;BMP180;54794;48.348;7.878;2023-12-14T20:23:47;100005.00;;;8.30
68012;BMP180;54794;48.348;7.878;2023-12-14T20:26:22;100005.00;;;8.30
68012;BMP180;54794;48.348;7.878;2023-12-14T20:28:49;100016.00;;;8.20
68012;BMP180;54794;48.348;7.878;2023-12-14T20:31:17;100013.00;;;8.10
68012;BMP180;54794;48.348;7.878;2023-12-14T20:33:44;100023.00;;;8.30
68012;BMP180;54794;48.348;7.878;2023-12-14T20:36:11;100024.00;;;8.50
68012;BMP180;54794;48.348;7.878;2023-12-14T20:38:38;100025.00;;;8.30
68012;BMP180;54794;48.348;7.878;2023-12-14T20:41:05;100033.00;;;8.20
68012;BMP180;54794;48.348;7.878;2023-12-14T20:43:32;100037.00;;;8.40
68012;BMP180;54794;48.348;7.878;2023-12-14T20:45:59;100050.00;;;8.30
68012;BMP180;54794;48.348;7.878;2023-12-14T20:48:28;100044.00;;;8.40
68012;BMP180;54794;48.348;7.878;2023-12-14T20:50:55;100054.00;;;8.20
68012;BMP180;54794;48.348;7.878;2023-12-14T20:53:22;100066.00;;;8.20
68012;BMP180;54794;48.348;7.878;2023-12-14T20:55:51;100075.00;;;8.20
68012;BMP180;54794;48.348;7.878;2023-12-14T20:58:18;100078.00;;;7.90
68012;BMP180;54794;48.348;7.878;2023-12-14T21:00:45;100086.00;;;8.10
68012;BMP180;54794;48.348;7.878;2023-12-14T21:03:12;100090.00;;;8.10
68012;BMP180;54794;48.348;7.878;2023-12-14T21:05:43;100096.00;;;7.90
68012;BMP180;54794;48.348;7.878;2023-12-14T21:08:16;100087.00;;;8.00
68012;BMP180;54794;48.348;7.878;2023-12-14T21:10:45;100089.00;;;7.90
68012;BMP180;54794;48.348;7.878;2023-12-14T21:13:13;100097.00;;;8.10
68012;BMP180;54794;48.348;7.878;2023-12-14T21:15:47;100087.00;;;8.10
68012;BMP180;54794;48.348;7.878;2023-12-14T21:18:14;100098.00;;;8.10
68012;BMP180;54794;48.348;7.878;2023-12-14T21:20:41;100094.00;;;8.10
68012;BMP180;54794;48.348;7.878;2023-12-14T21:23:08;100094.00;;;8.00
68012;BMP180;54794;48.348;7.878;2023-12-14T21:25:35;100094.00;;;8.10
68012;BMP180;54794;48.348;7.878;2023-12-14T21:28:17;100107.00;;;7.90
68012;BMP180;54794;48.348;7.878;2023-12-14T21:30:44;100095.00;;;8.20
68012;BMP180;54794;48.348;7.878;2023-12-14T21:33:11;100105.00;;;8.10
68012;BMP180;54794;48.348;7.878;2023-12-14T21:35:42;100102.00;;;8.20
68012;BMP180;54794;48.348;7.878;2023-12-14T21:38:09;100109.00;;;8.20
68012;BMP180;54794;48.348;7.878;2023-12-14T21:40:38;100112.00;;;8.10
68012;BMP180;54794;48.348;7.878;2023-12-14T21:43:05;100119.00;;;8.10
68012;BMP180;54794;48.348;7.878;2023-12-14T21:45:32;100118.00;;;8.10
68012;BMP180;54794;48.348;7.878;2023-12-14T21:47:58;100128.00;;;8.20
68012;BMP180;54794;48.348;7.878;2023-12-14T21:50:26;100128.00;;;7.90
68012;BMP180;54794;48.348;7.878;2023-12-14T21:52:55;100136.00;;;7.90
68012;BMP180;54794;48.348;7.878;2023-12-14T21:55:23;100124.00;;;7.60
68012;BMP180;54794;48.348;7.878;2023-12-14T21:57:50;100137.00;;;7.60
68012;BMP180;54794;48.348;7.878;2023-12-14T22:00:17;100143.00;;;7.50
68012;BMP180;54794;48.348;7.878;2023-12-14T22:02:45;100140.00;;;7.50
68012;BMP180;54794;48.348;7.878;2023-12-14T22:05:12;100146.00;;;7.40
68012;BMP180;54794;48.348;7.878;2023-12-14T22:07:39;100155.00;;;7.70
68012;BMP180;54794;48.348;7.878;2023-12-14T22:10:07;100165.00;;;7.60
68012;BMP180;54794;48.348;7.878;2023-12-14T22:12:36;100153.00;;;7.60
68012;BMP180;54794;48.348;7.878;2023-12-14T22:15:04;100160.00;;;7.40
68012;BMP180;54794;48.348;7.878;2023-12-14T22:17:31;100164.00;;;7.20
68012;BMP180;54794;48.348;7.878;2023-12-14T22:19:58;100163.00;;;7.20
68012;BMP180;54794;48.348;7.878;2023-12-14T22:22:26;100160.00;;;7.50
68012;BMP180;54794;48.348;7.878;2023-12-14T22:24:52;100164.00;;;7.40
68012;BMP180;54794;48.348;7.878;2023-12-14T22:27:19;100167.00;;;7.40
68012;BMP180;54794;48.348;7.878;2023-12-14T22:29:46;100169.00;;;7.50
68012;BMP180;54794;48.348;7.878;2023-12-14T22:32:13;100181.00;;;7.40
68012;BMP180;54794;48.348;7.878;2023-12-14T22:34:40;100183.00;;;7.20
68012;BMP180;54794;48.348;7.878;2023-12-14T22:37:07;100192.00;;;7.10
68012;BMP180;54794;48.348;7.878;2023-12-14T22:39:33;100183.00;;;7.30
68012;BMP180;54794;48.348;7.878;2023-12-14T22:42:00;100193.00;;;7.10
68012;BMP180;54794;48.348;7.878;2023-12-14T22:44:28;100193.00;;;7.30
68012;BMP180;54794;48.348;7.878;2023-12-14T22:46:54;100191.00;;;7.50
68012;BMP180;54794;48.348;7.878;2023-12-14T22:49:21;100197.00;;;7.20
68012;BMP180;54794;48.348;7.878;2023-12-14T22:51:48;100199.00;;;7.00
68012;BMP180;54794;48.348;7.878;2023-12-14T22:54:15;100205.00;;;7.20
68012;BMP180;54794;48.348;7.878;2023-12-14T22:56:42;100211.00;;;7.10
68012;BMP180;54794;48.348;7.878;2023-12-14T22:59:09;100224.00;;;7.20
68012;BMP180;54794;48.348;7.878;2023-12-14T23:01:36;100225.00;;;7.40
68012;BMP180;54794;48.348;7.878;2023-12-14T23:04:04;100236.00;;;7.20
68012;BMP180;54794;48.348;7.878;2023-12-14T23:06:31;100234.00;;;7.10
68012;BMP180;54794;48.348;7.878;2023-12-14T23:09:01;100246.00;;;7.30
68012;BMP180;54794;48.348;7.878;2023-12-14T23:11:28;100242.00;;;7.30
68012;BMP180;54794;48.348;7.878;2023-12-14T23:13:56;100251.00;;;7.30
68012;BMP180;54794;48.348;7.878;2023-12-14T23:16:24;100262.00;;;7.20
68012;BMP180;54794;48.348;7.878;2023-12-14T23:18:51;100251.00;;;7.10
68012;BMP180;54794;48.348;7.878;2023-12-14T23:21:18;100259.00;;;7.20
68012;BMP180;54794;48.348;7.878;2023-12-14T23:23:45;100263.00;;;7.10
68012;BMP180;54794;48.348;7.878;2023-12-14T23:26:12;100262.00;;;7.20
68012;BMP180;54794;48.348;7.878;2023-12-14T23:28:39;100271.00;;;7.10
68012;BMP180;54794;48.348;7.878;2023-12-14T23:31:05;100265.00;;;7.10
68012;BMP180;54794;48.348;7.878;2023-12-14T23:33:33;100283.00;;;6.80
68012;BMP180;54794;48.348;7.878;2023-12-14T23:36:00;100287.00;;;6.90
68012;BMP180;54794;48.348;7.878;2023-12-14T23:38:27;100288.00;;;7.10
68012;BMP180;54794;48.348;7.878;2023-12-14T23:40:53;100289.00;;;7.30
68012;BMP180;54794;48.348;7.878;2023-12-14T23:43:20;100284.00;;;7.30
68012;BMP180;54794;48.348;7.878;2023-12-14T23:45:48;100281.00;;;7.20
68012;BMP180;54794;48.348;7.878;2023-12-14T23:48:14;100283.00;;;7.20
68012;BMP180;54794;48.348;7.878;2023-12-14T23:50:41;100286.00;;;7.30
68012;BMP180;54794;48.348;7.878;2023-12-14T23:53:08;100291.00;;;6.90
68012;BMP180;54794;48.348;7.878;2023-12-14T23:55:37;100301.00;;;7.10
68012;BMP180;54794;48.348;7.878;2023-12-14T23:58:04;100308.00;;;7.10
